sensor_id;sensor_type;location;lat;lon;timestamp;P1;durP1;ratioP1;P2;durP2;ratioP2
5077;SDS011;2557;51.390;7.494;2022-08-18T00:00:25;40.73;;;35.80;;
5077;SDS011;2557;51.390;7.494;2022-08-18T00:02:51;49.47;;;39.53;;
5077;SDS011;2557;51.390;7.494;2022-08-18T00:05:18;41.33;;;37.00;;
5077;SDS011;2557;51.390;7.494;2022-08-18T00:07:45;40.00;;;35.73;;
5077;SDS011;2557;51.390;7.494;2022-08-18T00:10:11;39.67;;;34.77;;
5077;SDS011;2557;51.390;7.494;2022-08-18T00:12:39;42.53;;;38.00;;
5077;SDS011;2557;51.390;7.494;2022-08-18T00:15:06;41.90;;;36.97;;
5077;SDS011;2557;51.390;7.494;2022-08-18T00:17:33;41.40;;;36.93;;
5077;SDS011;2557;51.390;7.494;2022-08-18T00:20:00;39.77;;;35.47;;
5077;SDS011;2557;51.390;7.494;2022-08-18T00:22:27;44.50;;;37.73;;
5077;SDS011;2557;51.390;7.494;2022-08-18T00:24:54;44.37;;;38.60;;
5077;SDS011;2557;51.390;7.494;2022-08-18T00:27:21;40.37;;;36.07;;
5077;SDS011;2557;51.390;7.494;2022-08-18T00:29:47;40.77;;;36.53;;
5077;SDS011;2557;51.390;7.494;2022-08-18T00:32:14;43.20;;;37.47;;
5077;SDS011;2557;51.390;7.494;2022-08-18T00:34:41;43.00;;;37.13;;
5077;SDS011;2557;51.390;7.494;2022-08-18T00:37:07;38.47;;;34.37;;
5077;SDS011;2557;51.390;7.494;2022-08-18T00:39:33;46.70;;;36.37;;
5077;SDS011;2557;51.390;7.494;2022-08-18T00:42:10;41.23;;;36.73;;
5077;SDS011;2557;51.390;7.494;2022-08-18T00:44:36;41.30;;;35.10;;
5077;SDS011;2557;51.390;7.494;2022-08-18T00:47:02;45.67;;;38.73;;
5077;SDS011;2557;51.390;7.494;2022-08-18T00:49:28;43.83;;;36.00;;
5077;SDS011;2557;51.390;7.494;2022-08-18T00:51:54;42.93;;;36.37;;
5077;SDS011;2557;51.390;7.494;2022-08-18T00:54:23;40.53;;;36.27;;
5077;SDS011;2557;51.390;7.494;2022-08-18T00:56:51;43.23;;;38.53;;
5077;SDS011;2557;51.390;7.494;2022-08-18T00:59:20;43.73;;;38.27;;
5077;SDS011;2557;51.390;7.494;2022-08-18T01:01:48;47.03;;;41.47;;
5077;SDS011;2557;51.390;7.494;2022-08-18T01:04:17;44.93;;;40.10;;
5077;SDS011;2557;51.390;7.494;2022-08-18T01:06:55;46.83;;;36.93;;
5077;SDS011;2557;51.390;7.494;2022-08-18T01:09:24;40.70;;;36.27;;
5077;SDS011;2557;51.390;7.494;2022-08-18T01:11:50;40.60;;;35.10;;
5077;SDS011;2557;51.390;7.494;2022-08-18T01:14:16;39.43;;;34.87;;
5077;SDS011;2557;51.390;7.494;2022-08-18T01:16:44;42.27;;;36.50;;
5077;SDS011;2557;51.390;7.494;2022-08-18T01:19:29;46.17;;;38.80;;
5077;SDS011;2557;51.390;7.494;2022-08-18T01:24:43;46.30;;;40.87;;
5077;SDS011;2557;51.390;7.494;2022-08-18T01:27:28;46.10;;;40.43;;
5077;SDS011;2557;51.390;7.494;2022-08-18T01:29:55;46.90;;;39.30;;
5077;SDS011;2557;51.390;7.494;2022-08-18T01:32:22;49.03;;;42.33;;
5077;SDS011;2557;51.390;7.494;2022-08-18T01:34:49;47.70;;;39.73;;
5077;SDS011;2557;51.390;7.494;2022-08-18T01:37:17;43.67;;;38.37;;
5077;SDS011;2557;51.390;7.494;2022-08-18T01:39:45;45.93;;;39.53;;
5077;SDS011;2557;51.390;7.494;2022-08-18T01:42:12;41.53;;;35.63;;
5077;SDS011;2557;51.390;7.494;2022-08-18T01:44:40;40.23;;;35.60;;
5077;SDS011;2557;51.390;7.494;2022-08-18T01:47:07;45.20;;;39.33;;
5077;SDS011;2557;51.390;7.494;2022-08-18T01:49:34;45.83;;;38.30;;
5077;SDS011;2557;51.390;7.494;2022-08-18T01:52:00;48.93;;;39.20;;
5077;SDS011;2557;51.390;7.494;2022-08-18T01:54:28;45.60;;;39.63;;
5077;SDS011;2557;51.390;7.494;2022-08-18T01:56:54;51.10;;;41.80;;
5077;SDS011;2557;51.390;7.494;2022-08-18T01:59:20;46.13;;;39.80;;
5077;SDS011;2557;51.390;7.494;2022-08-18T02:01:46;44.57;;;39.60;;
5077;SDS011;2557;51.390;7.494;2022-08-18T02:04:13;43.73;;;38.23;;
5077;SDS011;2557;51.390;7.494;2022-08-18T02:06:40;49.53;;;41.27;;
5077;SDS011;2557;51.390;7.494;2022-08-18T02:09:06;49.03;;;40.80;;
5077;SDS011;2557;51.390;7.494;2022-08-18T02:11:33;51.20;;;42.40;;
5077;SDS011;2557;51.390;7.494;2022-08-18T02:13:59;52.03;;;41.37;;
5077;SDS011;2557;51.390;7.494;2022-08-18T02:16:25;51.87;;;43.70;;
5077;SDS011;2557;51.390;7.494;2022-08-18T02:18:51;51.70;;;41.23;;
5077;SDS011;2557;51.390;7.494;2022-08-18T02:21:18;50.80;;;40.93;;
5077;SDS011;2557;51.390;7.494;2022-08-18T02:23:46;52.20;;;42.37;;
5077;SDS011;2557;51.390;7.494;2022-08-18T02:26:14;53.90;;;43.43;;
5077;SDS011;2557;51.390;7.494;2022-08-18T02:28:41;51.07;;;41.77;;
5077;SDS011;2557;51.390;7.494;2022-08-18T02:31:14;47.13;;;41.90;;
5077;SDS011;2557;51.390;7.494;2022-08-18T02:33:41;46.67;;;40.03;;
5077;SDS011;2557;51.390;7.494;2022-08-18T02:36:07;47.13;;;39.77;;
5077;SDS011;2557;51.390;7.494;2022-08-18T02:38:34;47.77;;;40.77;;
5077;SDS011;2557;51.390;7.494;2022-08-18T02:41:01;48.00;;;39.27;;
5077;SDS011;2557;51.390;7.494;2022-08-18T02:43:27;48.10;;;39.97;;
5077;SDS011;2557;51.390;7.494;2022-08-18T02:45:54;50.27;;;40.80;;
5077;SDS011;2557;51.390;7.494;2022-08-18T02:48:20;49.57;;;40.77;;
5077;SDS011;2557;51.390;7.494;2022-08-18T02:51:07;48.87;;;42.07;;
5077;SDS011;2557;51.390;7.494;2022-08-18T02:53:35;56.57;;;43.10;;
5077;SDS011;2557;51.390;7.494;2022-08-18T02:56:11;50.53;;;42.90;;
5077;SDS011;2557;51.390;7.494;2022-08-18T02:59:03;53.03;;;42.40;;
5077;SDS011;2557;51.390;7.494;2022-08-18T03:01:30;57.13;;;43.10;;
5077;SDS011;2557;51.390;7.494;2022-08-18T03:03:57;49.37;;;40.87;;
5077;SDS011;2557;51.390;7.494;2022-08-18T03:06:24;52.40;;;43.53;;
5077;SDS011;2557;51.390;7.494;2022-08-18T03:08:51;55.13;;;43.73;;
5077;SDS011;2557;51.390;7.494;2022-08-18T03:11:18;59.50;;;44.17;;
5077;SDS011;2557;51.390;7.494;2022-08-18T03:13:45;50.37;;;42.53;;
5077;SDS011;2557;51.390;7.494;2022-08-18T03:16:11;51.97;;;43.07;;
5077;SDS011;2557;51.390;7.494;2022-08-18T03:18:38;50.83;;;41.97;;
5077;SDS011;2557;51.390;7.494;2022-08-18T03:21:06;52.90;;;43.07;;
5077;SDS011;2557;51.390;7.494;2022-08-18T03:23:33;51.53;;;42.60;;
5077;SDS011;2557;51.390;7.494;2022-08-18T03:26:00;49.97;;;40.53;;
5077;SDS011;2557;51.390;7.494;2022-08-18T03:28:26;53.97;;;42.20;;
5077;SDS011;2557;51.390;7.494;2022-08-18T03:30:53;55.30;;;43.17;;
5077;SDS011;2557;51.390;7.494;2022-08-18T03:33:19;49.57;;;41.57;;
5077;SDS011;2557;51.390;7.494;2022-08-18T03:35:45;44.10;;;37.27;;
5077;SDS011;2557;51.390;7.494;2022-08-18T03:38:11;51.63;;;40.87;;
5077;SDS011;2557;51.390;7.494;2022-08-18T03:40:37;50.03;;;40.40;;
5077;SDS011;2557;51.390;7.494;2022-08-18T03:43:03;55.13;;;42.00;;
5077;SDS011;2557;51.390;7.494;2022-08-18T03:45:30;52.80;;;40.87;;
5077;SDS011;2557;51.390;7.494;2022-08-18T03:47:56;52.97;;;43.73;;
5077;SDS011;2557;51.390;7.494;2022-08-18T03:50:24;55.07;;;43.37;;
5077;SDS011;2557;51.390;7.494;2022-08-18T03:52:50;57.13;;;45.33;;
5077;SDS011;2557;51.390;7.494;2022-08-18T03:55:16;56.30;;;45.13;;
5077;SDS011;2557;51.390;7.494;2022-08-18T03:57:43;54.17;;;44.20;;
5077;SDS011;2557;51.390;7.494;2022-08-18T04:00:09;52.23;;;43.60;;
5077;SDS011;2557;51.390;7.494;2022-08-18T04:02:36;49.87;;;43.67;;
5077;SDS011;2557;51.390;7.494;2022-08-18T04:05:02;50.00;;;40.00;;
5077;SDS011;2557;51.390;7.494;2022-08-18T04:07:28;50.40;;;41.90;;
5077;SDS011;2557;51.390;7.494;2022-08-18T04:09:54;50.00;;;41.43;;
5077;SDS011;2557;51.390;7.494;2022-08-18T04:12:20;57.63;;;45.70;;
5077;SDS011;2557;51.390;7.494;2022-08-18T04:14:47;46.60;;;39.70;;
5077;SDS011;2557;51.390;7.494;2022-08-18T04:17:13;48.90;;;40.30;;
5077;SDS011;2557;51.390;7.494;2022-08-18T04:19:39;53.33;;;42.73;;
5077;SDS011;2557;51.390;7.494;2022-08-18T04:22:06;52.80;;;42.53;;
5077;SDS011;2557;51.390;7.494;2022-08-18T04:24:32;52.17;;;40.40;;
5077;SDS011;2557;51.390;7.494;2022-08-18T04:26:59;56.90;;;43.47;;
5077;SDS011;2557;51.390;7.494;2022-08-18T04:29:25;50.17;;;39.00;;
5077;SDS011;2557;51.390;7.494;2022-08-18T04:31:52;52.37;;;43.07;;
5077;SDS011;2557;51.390;7.494;2022-08-18T04:34:19;49.10;;;41.07;;
5077;SDS011;2557;51.390;7.494;2022-08-18T04:36:46;52.67;;;42.53;;
5077;SDS011;2557;51.390;7.494;2022-08-18T04:39:12;52.70;;;42.53;;
5077;SDS011;2557;51.390;7.494;2022-08-18T04:41:39;57.50;;;43.50;;
5077;SDS011;2557;51.390;7.494;2022-08-18T04:44:07;47.70;;;41.23;;
5077;SDS011;2557;51.390;7.494;2022-08-18T04:46:35;51.17;;;42.73;;
5077;SDS011;2557;51.390;7.494;2022-08-18T04:49:01;48.33;;;40.87;;
5077;SDS011;2557;51.390;7.494;2022-08-18T04:51:28;50.10;;;42.60;;
5077;SDS011;2557;51.390;7.494;2022-08-18T04:53:54;51.27;;;41.20;;
5077;SDS011;2557;51.390;7.494;2022-08-18T04:56:25;50.30;;;41.33;;
5077;SDS011;2557;51.390;7.494;2022-08-18T04:58:52;56.10;;;44.87;;
5077;SDS011;2557;51.390;7.494;2022-08-18T05:01:19;60.93;;;46.10;;
5077;SDS011;2557;51.390;7.494;2022-08-18T05:03:46;60.83;;;48.10;;
5077;SDS011;2557;51.390;7.494;2022-08-18T05:06:13;56.13;;;44.60;;
5077;SDS011;2557;51.390;7.494;2022-08-18T05:08:39;60.50;;;47.20;;
5077;SDS011;2557;51.390;7.494;2022-08-18T05:11:05;59.57;;;47.10;;
5077;SDS011;2557;51.390;7.494;2022-08-18T05:13:31;61.73;;;44.87;;
5077;SDS011;2557;51.390;7.494;2022-08-18T05:15:58;57.03;;;45.73;;
5077;SDS011;2557;51.390;7.494;2022-08-18T05:18:27;58.83;;;44.80;;
5077;SDS011;2557;51.390;7.494;2022-08-18T05:20:54;61.13;;;48.63;;
5077;SDS011;2557;51.390;7.494;2022-08-18T05:23:21;61.20;;;48.23;;
5077;SDS011;2557;51.390;7.494;2022-08-18T05:25:47;65.67;;;48.47;;
5077;SDS011;2557;51.390;7.494;2022-08-18T05:28:13;62.77;;;46.33;;
5077;SDS011;2557;51.390;7.494;2022-08-18T05:30:39;71.60;;;49.90;;
5077;SDS011;2557;51.390;7.494;2022-08-18T05:33:06;70.23;;;47.77;;
5077;SDS011;2557;51.390;7.494;2022-08-18T05:35:40;69.30;;;48.50;;
5077;SDS011;2557;51.390;7.494;2022-08-18T05:41:12;67.37;;;49.10;;
5077;SDS011;2557;51.390;7.494;2022-08-18T05:43:39;59.57;;;45.40;;
5077;SDS011;2557;51.390;7.494;2022-08-18T05:46:08;63.00;;;45.67;;
5077;SDS011;2557;51.390;7.494;2022-08-18T05:48:35;63.13;;;46.77;;
5077;SDS011;2557;51.390;7.494;2022-08-18T05:51:04;64.00;;;47.93;;
5077;SDS011;2557;51.390;7.494;2022-08-18T05:53:33;63.53;;;46.30;;
5077;SDS011;2557;51.390;7.494;2022-08-18T05:56:18;63.60;;;46.87;;
5077;SDS011;2557;51.390;7.494;2022-08-18T05:59:07;64.80;;;46.90;;
5077;SDS011;2557;51.390;7.494;2022-08-18T06:01:38;66.10;;;50.10;;
5077;SDS011;2557;51.390;7.494;2022-08-18T06:04:18;65.20;;;48.10;;
5077;SDS011;2557;51.390;7.494;2022-08-18T06:06:45;75.50;;;52.80;;
5077;SDS011;2557;51.390;7.494;2022-08-18T06:11:42;72.30;;;47.67;;
5077;SDS011;2557;51.390;7.494;2022-08-18T06:14:08;68.80;;;44.20;;
5077;SDS011;2557;51.390;7.494;2022-08-18T06:16:41;63.73;;;44.00;;
5077;SDS011;2557;51.390;7.494;2022-08-18T06:19:15;70.97;;;46.40;;
5077;SDS011;2557;51.390;7.494;2022-08-18T06:21:49;71.80;;;45.70;;
5077;SDS011;2557;51.390;7.494;2022-08-18T06:24:24;60.10;;;40.50;;
5077;SDS011;2557;51.390;7.494;2022-08-18T06:34:46;65.67;;;41.60;;
5077;SDS011;2557;51.390;7.494;2022-08-18T06:39:52;63.80;;;39.80;;
5077;SDS011;2557;51.390;7.494;2022-08-18T06:42:21;68.53;;;41.47;;
5077;SDS011;2557;51.390;7.494;2022-08-18T06:50:08;68.63;;;41.43;;
5077;SDS011;2557;51.390;7.494;2022-08-18T06:52:39;71.63;;;43.40;;
5077;SDS011;2557;51.390;7.494;2022-08-18T06:55:16;73.73;;;42.80;;
5077;SDS011;2557;51.390;7.494;2022-08-18T06:57:55;69.43;;;45.37;;
5077;SDS011;2557;51.390;7.494;2022-08-18T07:00:26;74.37;;;42.87;;
5077;SDS011;2557;51.390;7.494;2022-08-18T07:08:03;60.27;;;38.10;;
5077;SDS011;2557;51.390;7.494;2022-08-18T07:10:32;55.73;;;37.57;;
5077;SDS011;2557;51.390;7.494;2022-08-18T07:13:05;55.67;;;37.53;;
5077;SDS011;2557;51.390;7.494;2022-08-18T07:15:31;59.33;;;40.23;;
5077;SDS011;2557;51.390;7.494;2022-08-18T07:18:04;62.43;;;38.37;;
5077;SDS011;2557;51.390;7.494;2022-08-18T07:20:31;60.33;;;41.00;;
5077;SDS011;2557;51.390;7.494;2022-08-18T07:23:05;63.50;;;38.67;;
5077;SDS011;2557;51.390;7.494;2022-08-18T07:25:41;56.50;;;36.70;;
5077;SDS011;2557;51.390;7.494;2022-08-18T07:28:25;52.23;;;35.00;;
5077;SDS011;2557;51.390;7.494;2022-08-18T07:30:52;49.33;;;34.17;;
5077;SDS011;2557;51.390;7.494;2022-08-18T07:33:20;54.37;;;34.93;;
5077;SDS011;2557;51.390;7.494;2022-08-18T07:35:56;55.87;;;37.43;;
5077;SDS011;2557;51.390;7.494;2022-08-18T07:38:30;58.20;;;36.90;;
5077;SDS011;2557;51.390;7.494;2022-08-18T07:41:00;59.50;;;39.93;;
5077;SDS011;2557;51.390;7.494;2022-08-18T07:43:32;70.77;;;43.20;;
5077;SDS011;2557;51.390;7.494;2022-08-18T07:46:04;65.53;;;43.37;;
5077;SDS011;2557;51.390;7.494;2022-08-18T07:48:31;80.00;;;43.97;;
5077;SDS011;2557;51.390;7.494;2022-08-18T07:55:54;74.60;;;44.43;;
5077;SDS011;2557;51.390;7.494;2022-08-18T07:58:24;84.90;;;45.60;;
5077;SDS011;2557;51.390;7.494;2022-08-18T08:01:08;80.47;;;45.23;;
5077;SDS011;2557;51.390;7.494;2022-08-18T08:07:04;87.77;;;47.93;;
5077;SDS011;2557;51.390;7.494;2022-08-18T08:16:50;83.57;;;45.77;;
5077;SDS011;2557;51.390;7.494;2022-08-18T08:22:11;88.00;;;47.53;;
5077;SDS011;2557;51.390;7.494;2022-08-18T08:24:41;88.63;;;49.60;;
5077;SDS011;2557;51.390;7.494;2022-08-18T08:30:04;78.10;;;45.87;;
5077;SDS011;2557;51.390;7.494;2022-08-18T08:32:32;82.00;;;46.80;;
5077;SDS011;2557;51.390;7.494;2022-08-18T08:35:05;83.10;;;47.47;;
5077;SDS011;2557;51.390;7.494;2022-08-18T08:37:35;86.43;;;50.00;;
5077;SDS011;2557;51.390;7.494;2022-08-18T08:45:00;80.70;;;48.40;;
5077;SDS011;2557;51.390;7.494;2022-08-18T08:49:59;76.63;;;46.60;;
5077;SDS011;2557;51.390;7.494;2022-08-18T08:52:32;80.90;;;45.53;;
5077;SDS011;2557;51.390;7.494;2022-08-18T08:55:05;69.37;;;42.77;;
5077;SDS011;2557;51.390;7.494;2022-08-18T08:57:41;76.57;;;46.77;;
5077;SDS011;2557;51.390;7.494;2022-08-18T09:00:10;80.10;;;45.03;;
5077;SDS011;2557;51.390;7.494;2022-08-18T09:12:41;74.57;;;45.60;;
5077;SDS011;2557;51.390;7.494;2022-08-18T09:23:06;71.87;;;44.17;;
5077;SDS011;2557;51.390;7.494;2022-08-18T09:28:10;67.80;;;41.87;;
5077;SDS011;2557;51.390;7.494;2022-08-18T09:33:17;75.63;;;44.20;;
5077;SDS011;2557;51.390;7.494;2022-08-18T09:35:52;74.67;;;43.93;;
5077;SDS011;2557;51.390;7.494;2022-08-18T09:38:22;73.93;;;45.00;;
5077;SDS011;2557;51.390;7.494;2022-08-18T09:41:11;74.13;;;45.53;;
5077;SDS011;2557;51.390;7.494;2022-08-18T09:44:07;65.43;;;41.93;;
5077;SDS011;2557;51.390;7.494;2022-08-18T09:51:48;74.50;;;43.80;;
5077;SDS011;2557;51.390;7.494;2022-08-18T09:54:15;66.40;;;42.13;;
5077;SDS011;2557;51.390;7.494;2022-08-18T10:02:07;61.60;;;39.53;;
5077;SDS011;2557;51.390;7.494;2022-08-18T10:04:36;66.17;;;43.10;;
5077;SDS011;2557;51.390;7.494;2022-08-18T10:07:17;59.10;;;39.13;;
5077;SDS011;2557;51.390;7.494;2022-08-18T10:12:21;63.43;;;41.70;;
5077;SDS011;2557;51.390;7.494;2022-08-18T10:14:56;57.40;;;38.40;;
5077;SDS011;2557;51.390;7.494;2022-08-18T10:17:32;60.60;;;40.10;;
5077;SDS011;2557;51.390;7.494;2022-08-18T10:22:46;57.10;;;39.33;;
5077;SDS011;2557;51.390;7.494;2022-08-18T10:25:12;50.03;;;35.87;;
5077;SDS011;2557;51.390;7.494;2022-08-18T10:30:44;46.37;;;35.27;;
5077;SDS011;2557;51.390;7.494;2022-08-18T10:32:54;49.07;;;34.60;;
5077;SDS011;2557;51.390;7.494;2022-08-18T10:38:05;53.07;;;35.63;;
5077;SDS011;2557;51.390;7.494;2022-08-18T10:40:34;56.20;;;35.83;;
5077;SDS011;2557;51.390;7.494;2022-08-18T10:43:12;51.30;;;35.57;;
5077;SDS011;2557;51.390;7.494;2022-08-18T10:45:44;48.33;;;34.17;;
5077;SDS011;2557;51.390;7.494;2022-08-18T10:50:41;44.10;;;32.37;;
5077;SDS011;2557;51.390;7.494;2022-08-18T10:53:15;50.07;;;34.80;;
5077;SDS011;2557;51.390;7.494;2022-08-18T10:56:00;50.00;;;36.13;;
5077;SDS011;2557;51.390;7.494;2022-08-18T10:58:30;42.60;;;31.57;;
5077;SDS011;2557;51.390;7.494;2022-08-18T11:06:00;48.27;;;34.23;;
5077;SDS011;2557;51.390;7.494;2022-08-18T11:08:26;54.07;;;35.70;;
5077;SDS011;2557;51.390;7.494;2022-08-18T11:10:52;52.17;;;38.30;;
5077;SDS011;2557;51.390;7.494;2022-08-18T11:13:21;54.43;;;36.47;;
5077;SDS011;2557;51.390;7.494;2022-08-18T11:15:54;57.67;;;39.77;;
5077;SDS011;2557;51.390;7.494;2022-08-18T11:18:40;48.53;;;36.27;;
5077;SDS011;2557;51.390;7.494;2022-08-18T11:26:42;44.30;;;35.27;;
5077;SDS011;2557;51.390;7.494;2022-08-18T11:32:00;50.50;;;35.20;;
5077;SDS011;2557;51.390;7.494;2022-08-18T11:34:30;44.93;;;32.23;;
5077;SDS011;2557;51.390;7.494;2022-08-18T11:37:01;46.23;;;32.77;;
5077;SDS011;2557;51.390;7.494;2022-08-18T11:39:28;51.07;;;35.53;;
5077;SDS011;2557;51.390;7.494;2022-08-18T11:41:54;52.00;;;35.53;;
5077;SDS011;2557;51.390;7.494;2022-08-18T11:44:21;45.93;;;35.40;;
5077;SDS011;2557;51.390;7.494;2022-08-18T11:46:48;45.70;;;34.60;;
5077;SDS011;2557;51.390;7.494;2022-08-18T11:49:19;47.70;;;33.37;;
5077;SDS011;2557;51.390;7.494;2022-08-18T11:51:57;51.93;;;37.73;;
5077;SDS011;2557;51.390;7.494;2022-08-18T11:54:30;50.57;;;36.67;;
5077;SDS011;2557;51.390;7.494;2022-08-18T11:59:42;44.63;;;32.83;;
5077;SDS011;2557;51.390;7.494;2022-08-18T12:02:08;49.80;;;35.03;;
5077;SDS011;2557;51.390;7.494;2022-08-18T12:04:38;44.30;;;32.87;;
5077;SDS011;2557;51.390;7.494;2022-08-18T12:07:07;50.20;;;36.43;;
5077;SDS011;2557;51.390;7.494;2022-08-18T12:09:44;52.83;;;36.50;;
5077;SDS011;2557;51.390;7.494;2022-08-18T12:17:19;36.70;;;28.00;;
5077;SDS011;2557;51.390;7.494;2022-08-18T12:19:45;45.03;;;33.63;;
5077;SDS011;2557;51.390;7.494;2022-08-18T12:22:13;41.93;;;32.07;;
5077;SDS011;2557;51.390;7.494;2022-08-18T12:24:39;42.17;;;32.00;;
5077;SDS011;2557;51.390;7.494;2022-08-18T12:27:06;45.97;;;34.10;;
5077;SDS011;2557;51.390;7.494;2022-08-18T12:29:32;38.10;;;30.23;;
5077;SDS011;2557;51.390;7.494;2022-08-18T12:31:58;38.67;;;31.43;;
5077;SDS011;2557;51.390;7.494;2022-08-18T12:34:24;47.10;;;35.70;;
5077;SDS011;2557;51.390;7.494;2022-08-18T12:36:51;44.00;;;34.40;;
5077;SDS011;2557;51.390;7.494;2022-08-18T12:39:18;48.67;;;36.10;;
5077;SDS011;2557;51.390;7.494;2022-08-18T12:41:44;47.63;;;35.40;;
5077;SDS011;2557;51.390;7.494;2022-08-18T12:44:11;45.17;;;33.73;;
5077;SDS011;2557;51.390;7.494;2022-08-18T12:46:37;48.30;;;37.20;;
5077;SDS011;2557;51.390;7.494;2022-08-18T12:49:03;48.97;;;34.30;;
5077;SDS011;2557;51.390;7.494;2022-08-18T12:51:30;45.60;;;34.40;;
5077;SDS011;2557;51.390;7.494;2022-08-18T12:53:56;48.27;;;36.97;;
5077;SDS011;2557;51.390;7.494;2022-08-18T12:56:24;52.87;;;39.60;;
5077;SDS011;2557;51.390;7.494;2022-08-18T12:58:51;44.97;;;36.97;;
5077;SDS011;2557;51.390;7.494;2022-08-18T13:01:18;44.90;;;34.00;;
5077;SDS011;2557;51.390;7.494;2022-08-18T13:03:45;47.00;;;35.07;;
5077;SDS011;2557;51.390;7.494;2022-08-18T13:06:11;44.83;;;33.00;;
5077;SDS011;2557;51.390;7.494;2022-08-18T13:08:37;40.00;;;32.70;;
5077;SDS011;2557;51.390;7.494;2022-08-18T13:11:03;42.80;;;33.33;;
5077;SDS011;2557;51.390;7.494;2022-08-18T13:13:34;43.13;;;32.73;;
5077;SDS011;2557;51.390;7.494;2022-08-18T13:16:00;42.57;;;32.10;;
5077;SDS011;2557;51.390;7.494;2022-08-18T13:18:27;41.40;;;29.07;;
5077;SDS011;2557;51.390;7.494;2022-08-18T13:20:53;40.07;;;33.53;;
5077;SDS011;2557;51.390;7.494;2022-08-18T13:23:19;36.03;;;29.50;;
5077;SDS011;2557;51.390;7.494;2022-08-18T13:25:45;44.03;;;35.63;;
5077;SDS011;2557;51.390;7.494;2022-08-18T13:28:11;38.17;;;29.97;;
5077;SDS011;2557;51.390;7.494;2022-08-18T13:30:37;35.90;;;30.83;;
5077;SDS011;2557;51.390;7.494;2022-08-18T13:33:03;36.03;;;29.40;;
5077;SDS011;2557;51.390;7.494;2022-08-18T13:35:29;37.80;;;30.80;;
5077;SDS011;2557;51.390;7.494;2022-08-18T13:37:55;34.37;;;30.10;;
5077;SDS011;2557;51.390;7.494;2022-08-18T13:40:21;34.90;;;31.10;;
5077;SDS011;2557;51.390;7.494;2022-08-18T13:42:47;35.30;;;31.50;;
5077;SDS011;2557;51.390;7.494;2022-08-18T13:45:14;39.00;;;32.90;;
5077;SDS011;2557;51.390;7.494;2022-08-18T13:47:41;33.53;;;30.00;;
5077;SDS011;2557;51.390;7.494;2022-08-18T13:50:08;33.83;;;28.97;;
5077;SDS011;2557;51.390;7.494;2022-08-18T13:52:35;34.47;;;30.77;;
5077;SDS011;2557;51.390;7.494;2022-08-18T13:55:01;38.60;;;32.50;;
5077;SDS011;2557;51.390;7.494;2022-08-18T13:57:28;33.73;;;30.23;;
5077;SDS011;2557;51.390;7.494;2022-08-18T13:59:55;28.57;;;24.87;;
5077;SDS011;2557;51.390;7.494;2022-08-18T14:02:21;36.10;;;31.30;;
5077;SDS011;2557;51.390;7.494;2022-08-18T14:04:47;37.67;;;33.43;;
5077;SDS011;2557;51.390;7.494;2022-08-18T14:07:14;37.33;;;27.57;;
5077;SDS011;2557;51.390;7.494;2022-08-18T14:09:41;39.07;;;33.20;;
5077;SDS011;2557;51.390;7.494;2022-08-18T14:12:10;41.50;;;33.70;;
5077;SDS011;2557;51.390;7.494;2022-08-18T14:14:39;37.03;;;33.10;;
5077;SDS011;2557;51.390;7.494;2022-08-18T14:17:05;40.40;;;36.13;;
5077;SDS011;2557;51.390;7.494;2022-08-18T14:19:31;45.30;;;34.50;;
5077;SDS011;2557;51.390;7.494;2022-08-18T14:22:15;39.73;;;33.30;;
5077;SDS011;2557;51.390;7.494;2022-08-18T14:25:01;31.57;;;28.07;;
5077;SDS011;2557;51.390;7.494;2022-08-18T14:27:45;33.23;;;29.50;;
5077;SDS011;2557;51.390;7.494;2022-08-18T14:30:11;34.03;;;29.13;;
5077;SDS011;2557;51.390;7.494;2022-08-18T14:32:39;35.73;;;31.90;;
5077;SDS011;2557;51.390;7.494;2022-08-18T14:35:06;35.03;;;30.97;;
5077;SDS011;2557;51.390;7.494;2022-08-18T14:37:32;36.97;;;29.50;;
5077;SDS011;2557;51.390;7.494;2022-08-18T14:39:58;32.90;;;28.57;;
5077;SDS011;2557;51.390;7.494;2022-08-18T14:42:24;31.30;;;27.00;;
5077;SDS011;2557;51.390;7.494;2022-08-18T14:44:51;33.17;;;24.50;;
5077;SDS011;2557;51.390;7.494;2022-08-18T14:47:17;27.93;;;25.03;;
5077;SDS011;2557;51.390;7.494;2022-08-18T14:49:43;25.07;;;22.50;;
5077;SDS011;2557;51.390;7.494;2022-08-18T14:52:10;26.63;;;23.57;;
5077;SDS011;2557;51.390;7.494;2022-08-18T14:54:36;24.97;;;21.30;;
5077;SDS011;2557;51.390;7.494;2022-08-18T14:57:02;27.40;;;22.93;;
5077;SDS011;2557;51.390;7.494;2022-08-18T14:59:29;24.33;;;21.87;;
5077;SDS011;2557;51.390;7.494;2022-08-18T15:01:56;23.90;;;21.60;;
5077;SDS011;2557;51.390;7.494;2022-08-18T15:04:23;24.07;;;21.47;;
5077;SDS011;2557;51.390;7.494;2022-08-18T15:06:49;22.70;;;20.13;;
5077;SDS011;2557;51.390;7.494;2022-08-18T15:09:15;21.90;;;19.80;;
5077;SDS011;2557;51.390;7.494;2022-08-18T15:11:41;22.03;;;20.13;;
5077;SDS011;2557;51.390;7.494;2022-08-18T15:14:07;21.13;;;18.93;;
5077;SDS011;2557;51.390;7.494;2022-08-18T15:16:33;21.63;;;19.67;;
5077;SDS011;2557;51.390;7.494;2022-08-18T15:19:00;20.10;;;18.40;;
5077;SDS011;2557;51.390;7.494;2022-08-18T15:21:27;20.23;;;18.20;;
5077;SDS011;2557;51.390;7.494;2022-08-18T15:24:11;19.67;;;18.00;;
5077;SDS011;2557;51.390;7.494;2022-08-18T15:26:56;18.57;;;16.97;;
5077;SDS011;2557;51.390;7.494;2022-08-18T15:29:23;18.10;;;16.43;;
5077;SDS011;2557;51.390;7.494;2022-08-18T15:31:49;18.73;;;17.03;;
5077;SDS011;2557;51.390;7.494;2022-08-18T15:34:16;18.30;;;16.67;;
5077;SDS011;2557;51.390;7.494;2022-08-18T15:36:42;19.10;;;17.50;;
5077;SDS011;2557;51.390;7.494;2022-08-18T15:39:08;19.70;;;16.70;;
5077;SDS011;2557;51.390;7.494;2022-08-18T15:41:35;18.37;;;16.57;;
5077;SDS011;2557;51.390;7.494;2022-08-18T15:44:03;20.00;;;18.00;;
5077;SDS011;2557;51.390;7.494;2022-08-18T15:46:33;17.87;;;16.17;;
5077;SDS011;2557;51.390;7.494;2022-08-18T15:48:59;18.93;;;16.97;;
5077;SDS011;2557;51.390;7.494;2022-08-18T15:51:25;19.77;;;17.83;;
5077;SDS011;2557;51.390;7.494;2022-08-18T15:53:51;17.73;;;16.30;;
5077;SDS011;2557;51.390;7.494;2022-08-18T15:56:19;20.33;;;18.43;;
5077;SDS011;2557;51.390;7.494;2022-08-18T15:58:45;19.07;;;17.37;;
5077;SDS011;2557;51.390;7.494;2022-08-18T16:01:12;18.20;;;16.50;;
5077;SDS011;2557;51.390;7.494;2022-08-18T16:03:38;15.43;;;14.13;;
5077;SDS011;2557;51.390;7.494;2022-08-18T16:06:05;16.90;;;15.30;;
5077;SDS011;2557;51.390;7.494;2022-08-18T16:08:35;17.20;;;15.50;;
5077;SDS011;2557;51.390;7.494;2022-08-18T16:11:05;15.90;;;14.57;;
5077;SDS011;2557;51.390;7.494;2022-08-18T16:13:31;17.23;;;15.50;;
5077;SDS011;2557;51.390;7.494;2022-08-18T16:15:57;15.83;;;14.50;;
5077;SDS011;2557;51.390;7.494;2022-08-18T16:18:23;15.53;;;14.23;;
5077;SDS011;2557;51.390;7.494;2022-08-18T16:20:49;15.87;;;14.47;;
5077;SDS011;2557;51.390;7.494;2022-08-18T16:23:15;18.37;;;15.53;;
5077;SDS011;2557;51.390;7.494;2022-08-18T16:25:41;15.20;;;13.80;;
5077;SDS011;2557;51.390;7.494;2022-08-18T16:28:08;17.40;;;15.80;;
5077;SDS011;2557;51.390;7.494;2022-08-18T16:30:37;15.93;;;14.57;;
5077;SDS011;2557;51.390;7.494;2022-08-18T16:33:03;16.40;;;14.90;;
5077;SDS011;2557;51.390;7.494;2022-08-18T16:35:30;16.00;;;14.60;;
5077;SDS011;2557;51.390;7.494;2022-08-18T16:38:00;15.67;;;14.30;;
5077;SDS011;2557;51.390;7.494;2022-08-18T16:40:26;17.77;;;16.20;;
5077;SDS011;2557;51.390;7.494;2022-08-18T16:42:54;18.90;;;17.10;;
5077;SDS011;2557;51.390;7.494;2022-08-18T16:45:20;15.50;;;14.20;;
5077;SDS011;2557;51.390;7.494;2022-08-18T16:47:46;17.90;;;15.10;;
5077;SDS011;2557;51.390;7.494;2022-08-18T16:50:14;16.23;;;14.93;;
5077;SDS011;2557;51.390;7.494;2022-08-18T16:52:42;15.50;;;14.10;;
5077;SDS011;2557;51.390;7.494;2022-08-18T16:55:08;16.73;;;15.13;;
5077;SDS011;2557;51.390;7.494;2022-08-18T16:57:39;15.23;;;13.83;;
5077;SDS011;2557;51.390;7.494;2022-08-18T17:00:24;16.97;;;15.20;;
5077;SDS011;2557;51.390;7.494;2022-08-18T17:03:09;16.30;;;14.70;;